createdAt,value
2018-06-05T00:01:19.343Z,100960.32
2018-06-05T00:03:48.354Z,100958.41
2018-06-05T00:06:17.305Z,100959.23
2018-06-05T00:08:46.204Z,100957.31
2018-06-05T00:11:15.099Z,100953.77
2018-06-05T00:13:44.024Z,100954.30
2018-06-05T00:16:12.945Z,100948.28
2018-06-05T00:18:41.878Z,100947.48
2018-06-05T00:21:10.796Z,100946.67
2018-06-05T00:23:39.683Z,100946.11
2018-06-05T00:26:08.612Z,100945.02
2018-06-05T00:28:37.548Z,100943.38
2018-06-05T00:31:06.747Z,100943.95
2018-06-05T00:33:35.925Z,100938.20
2018-06-05T00:36:05.118Z,100942.57
2018-06-05T00:38:34.043Z,100940.64
2018-06-05T00:41:02.968Z,100946.09
2018-06-05T00:43:31.882Z,100940.09
2018-06-05T00:46:00.821Z,100949.08
2018-06-05T00:48:29.750Z,100942.30
2018-06-05T00:50:58.684Z,100948.27
2018-06-05T00:53:27.593Z,100951.28
2018-06-05T00:55:56.499Z,100945.03
2018-06-05T00:58:25.421Z,100944.74
2018-06-05T01:00:54.334Z,100943.10
2018-06-05T01:03:23.265Z,100943.66
2018-06-05T01:05:52.194Z,100948.84
2018-06-05T01:08:21.087Z,100942.28
2018-06-05T01:10:50.010Z,100941.73
2018-06-05T01:13:19.468Z,100952.92
2018-06-05T01:15:48.611Z,100949.11
2018-06-05T01:18:17.513Z,100955.36
2018-06-05T01:20:46.427Z,100957.28
2018-06-05T01:23:15.335Z,100951.84
2018-06-05T01:25:44.250Z,100959.17
2018-06-05T01:28:13.184Z,100956.49
2018-06-05T01:30:42.113Z,100952.64
2018-06-05T01:33:11.029Z,100954.84
2018-06-05T01:35:39.950Z,100957.81
2018-06-05T01:38:08.839Z,100952.92
2018-06-05T01:40:37.792Z,100949.63
2018-06-05T01:43:06.695Z,100952.11
2018-06-05T01:45:35.622Z,100943.38
2018-06-05T01:48:04.674Z,100941.50
2018-06-05T01:50:33.583Z,100940.94
2018-06-05T01:53:02.495Z,100945.83
2018-06-05T01:55:31.400Z,100946.64
2018-06-05T01:58:00.340Z,100949.58
2018-06-05T02:00:29.262Z,100946.84
2018-06-05T02:02:58.178Z,100949.37
2018-06-05T02:05:27.122Z,100950.98
2018-06-05T02:07:56.030Z,100953.45
2018-06-05T02:10:24.946Z,100950.73
2018-06-05T02:12:53.872Z,100951.55
2018-06-05T02:15:22.862Z,100951.28
2018-06-05T02:17:51.774Z,100954.02
2018-06-05T02:20:20.717Z,100953.20
2018-06-05T02:22:49.617Z,100949.91
2018-06-05T02:25:18.537Z,100955.08
2018-06-05T02:27:47.440Z,100958.66
2018-06-05T02:30:16.373Z,100959.73
2018-06-05T02:32:45.282Z,100959.45
2018-06-05T02:35:14.183Z,100960.02
2018-06-05T02:37:43.132Z,100960.01
2018-06-05T02:40:12.053Z,100960.81
2018-06-05T02:42:41.002Z,100965.99
2018-06-05T02:45:09.927Z,100970.91
2018-06-05T02:47:38.833Z,100967.91
2018-06-05T02:50:07.766Z,100968.48
2018-06-05T02:52:36.660Z,100965.45
2018-06-05T02:55:05.607Z,100965.97
2018-06-05T02:57:34.491Z,100964.08
2018-06-05T03:00:07.225Z,100964.61
2018-06-05T03:02:36.153Z,100975.28
2018-06-05T03:05:05.070Z,100974.72
2018-06-05T03:07:34.288Z,100977.73
2018-06-05T03:10:03.218Z,100975.58
2018-06-05T03:12:32.143Z,100975.54
2018-06-05T03:15:01.114Z,100977.73
2018-06-05T03:17:30.032Z,100980.97
2018-06-05T03:19:58.952Z,100979.63
2018-06-05T03:22:27.847Z,100978.55
2018-06-05T03:24:56.781Z,100980.75
2018-06-05T03:27:25.682Z,100973.64
2018-06-05T03:29:54.611Z,100976.63
2018-06-05T03:32:23.521Z,100979.62
2018-06-05T03:34:52.438Z,100978.81
2018-06-05T03:37:21.418Z,100975.82
2018-06-05T03:39:50.348Z,100978.00
2018-06-05T03:42:19.262Z,100974.98
2018-06-05T03:44:48.197Z,100977.17
2018-06-05T03:47:17.124Z,100975.52
2018-06-05T03:49:46.042Z,100980.41
2018-06-05T03:52:14.984Z,100979.30
2018-06-05T03:54:43.878Z,100984.75
2018-06-05T03:57:12.890Z,100978.48
2018-06-05T03:59:41.775Z,100976.84
2018-06-05T04:02:10.869Z,100980.13
2018-06-05T04:04:39.832Z,100980.67
2018-06-05T04:07:08.762Z,100982.00
2018-06-05T04:09:38.543Z,100976.56
2018-06-05T04:12:07.471Z,100984.20
2018-06-05T04:14:36.429Z,100979.84
2018-06-05T04:17:05.466Z,100979.80
2018-06-05T04:19:34.403Z,100974.95
2018-06-05T04:22:03.334Z,100977.67
2018-06-05T04:24:35.936Z,100978.52
2018-06-05T04:27:04.904Z,100980.70
2018-06-05T04:29:33.761Z,100983.16
2018-06-05T04:32:02.719Z,100983.42
2018-06-05T04:34:34.812Z,100979.58
2018-06-05T04:37:03.728Z,100982.30
2018-06-05T04:39:32.943Z,100979.83
2018-06-05T04:42:01.858Z,100984.20
2018-06-05T04:44:30.755Z,100986.36
2018-06-05T04:46:59.699Z,100982.55
2018-06-05T04:49:28.608Z,100978.74
2018-06-05T04:51:58.058Z,100988.29
2018-06-05T04:54:27.110Z,100985.02
2018-06-05T04:56:56.034Z,100988.59
2018-06-05T04:59:24.966Z,100982.86
2018-06-05T05:01:53.892Z,100992.13
2018-06-05T05:04:22.837Z,100990.23
2018-06-05T05:06:51.743Z,100997.82
2018-06-05T05:09:21.707Z,100995.89
2018-06-05T05:11:50.626Z,100997.27
2018-06-05T05:14:19.566Z,101001.66
2018-06-05T05:16:48.520Z,101006.59
2018-06-05T05:19:17.462Z,100996.48
2018-06-05T05:21:46.373Z,101002.67
2018-06-05T05:24:15.291Z,101007.33
2018-06-05T05:26:44.218Z,101013.02
2018-06-05T05:29:13.147Z,101003.20
2018-06-05T05:31:42.082Z,101001.05
2018-06-05T05:34:11.014Z,101010.27
2018-06-05T05:36:39.961Z,101007.83
2018-06-05T05:39:08.885Z,101002.92
2018-06-05T05:41:37.795Z,101010.80
2018-06-05T05:44:06.714Z,101012.72
2018-06-05T05:46:35.637Z,101008.68
2018-06-05T05:49:04.585Z,101018.42
2018-06-05T05:51:33.550Z,101017.60
2018-06-05T05:54:02.503Z,101006.67
2018-06-05T05:56:31.436Z,101007.75
2018-06-05T05:59:00.417Z,101009.95
2018-06-05T06:01:29.356Z,101011.64
2018-06-05T06:03:58.597Z,101012.67
2018-06-05T06:06:27.498Z,101013.75
2018-06-05T06:09:00.158Z,101005.56
2018-06-05T06:11:29.064Z,101018.04
2018-06-05T06:13:58.028Z,101023.47
2018-06-05T06:16:26.952Z,101020.25
2018-06-05T06:18:55.933Z,101031.98
2018-06-05T06:21:25.011Z,101028.22
2018-06-05T06:23:53.924Z,101029.34
2018-06-05T06:26:22.855Z,101031.16
2018-06-05T06:28:51.796Z,101038.01
2018-06-05T06:31:20.717Z,101032.16
2018-06-05T06:33:49.668Z,101042.36
2018-06-05T06:36:18.595Z,101038.90
2018-06-05T06:38:47.566Z,101041.88
2018-06-05T06:41:16.867Z,101041.27
2018-06-05T06:43:46.966Z,101041.23
2018-06-05T06:46:15.912Z,101041.80
2018-06-05T06:48:44.911Z,101047.29
2018-06-05T06:51:13.988Z,101042.94
2018-06-05T06:53:42.926Z,101040.80
2018-06-05T06:56:11.842Z,101040.75
2018-06-05T06:58:40.840Z,101042.92
2018-06-05T07:01:09.822Z,101047.29
2018-06-05T07:03:38.898Z,101051.92
2018-06-05T07:06:07.860Z,101051.13
2018-06-05T07:08:36.788Z,101050.33
2018-06-05T07:11:05.723Z,101054.41
2018-06-05T07:13:34.625Z,101045.72
2018-06-05T07:16:03.569Z,101049.17
2018-06-05T07:18:32.482Z,101042.70
2018-06-05T07:21:01.412Z,101050.53
2018-06-05T07:23:30.343Z,101045.94
2018-06-05T07:25:59.257Z,101054.59
2018-06-05T07:28:28.169Z,101056.95
2018-06-05T07:30:58.097Z,101053.22
2018-06-05T07:33:27.045Z,101054.30
2018-06-05T07:35:55.985Z,101058.86
2018-06-05T07:38:24.887Z,101059.77
2018-06-05T07:40:53.826Z,101062.42
2018-06-05T07:43:22.777Z,101055.41
2018-06-05T07:45:51.682Z,101062.51
2018-06-05T07:48:20.599Z,101062.83
2018-06-05T07:50:49.504Z,101070.27
2018-06-05T07:53:18.445Z,101066.47
2018-06-05T07:55:47.380Z,101070.27
2018-06-05T07:58:16.298Z,101071.37
2018-06-05T08:00:45.229Z,101070.30
2018-06-05T08:03:14.156Z,101061.56
2018-06-05T08:05:43.092Z,101071.33
2018-06-05T08:08:12.022Z,101072.27
2018-06-05T08:10:40.952Z,101076.95
2018-06-05T08:13:10.224Z,101070.23
2018-06-05T08:15:39.139Z,101074.63
2018-06-05T08:18:08.119Z,101068.09
2018-06-05T08:20:37.046Z,101063.43
2018-06-05T08:23:05.951Z,101067.87
2018-06-05T08:25:34.893Z,101070.61
2018-06-05T08:28:03.819Z,101070.33
2018-06-05T08:30:32.777Z,101069.25
2018-06-05T08:33:01.705Z,101075.45
2018-06-05T08:35:30.730Z,101070.47
2018-06-05T08:37:59.752Z,101073.52
2018-06-05T08:40:28.578Z,101073.33
2018-06-05T08:43:00.740Z,101076.75
2018-06-05T08:45:29.666Z,101077.88
2018-06-05T08:47:58.692Z,101074.34
2018-06-05T08:50:27.868Z,101077.81
2018-06-05T08:52:56.773Z,101078.61
2018-06-05T08:55:25.741Z,101086.31
2018-06-05T08:57:54.686Z,101091.77
2018-06-05T09:00:23.594Z,101088.84
2018-06-05T09:02:52.517Z,101093.14
2018-06-05T09:05:21.471Z,101092.59
2018-06-05T09:07:50.346Z,101098.30
2018-06-05T09:10:19.265Z,101094.13
2018-06-05T09:12:48.168Z,101103.91
2018-06-05T09:15:17.085Z,101106.73
2018-06-05T09:17:46.013Z,101108.16
2018-06-05T09:20:14.945Z,101108.20
2018-06-05T09:22:43.863Z,101104.34
2018-06-05T09:25:12.791Z,101098.58
2018-06-05T09:27:41.699Z,101104.36
2018-06-05T09:30:10.647Z,101102.74
2018-06-05T09:32:39.566Z,101104.00
2018-06-05T09:35:08.467Z,101099.30
2018-06-05T09:37:37.388Z,101099.10
2018-06-05T09:40:06.351Z,101098.77
2018-06-05T09:42:35.270Z,101106.18
2018-06-05T09:45:04.227Z,101107.58
2018-06-05T09:47:33.127Z,101113.92
2018-06-05T09:50:02.114Z,101113.03
2018-06-05T09:52:31.042Z,101118.51
2018-06-05T09:54:59.972Z,101109.75
2018-06-05T09:57:28.894Z,101113.58
2018-06-05T09:59:58.852Z,101114.20
2018-06-05T10:02:27.780Z,101115.58
2018-06-05T10:04:56.691Z,101112.61
2018-06-05T10:07:25.652Z,101111.57
2018-06-05T10:09:54.621Z,101110.23
2018-06-05T10:12:23.527Z,101114.31
2018-06-05T10:14:52.465Z,101114.86
2018-06-05T10:17:21.379Z,101118.08
2018-06-05T10:19:50.291Z,101112.56
2018-06-05T10:22:19.215Z,101110.15
2018-06-05T10:24:48.129Z,101112.34
2018-06-05T10:27:20.277Z,101103.41
2018-06-05T10:29:49.212Z,101111.62
2018-06-05T10:32:18.127Z,101098.80
2018-06-05T10:34:47.096Z,101094.70
2018-06-05T10:37:16.007Z,101099.06
2018-06-05T10:39:45.115Z,101101.01
2018-06-05T10:42:14.054Z,101101.52
2018-06-05T10:44:42.954Z,101103.49
2018-06-05T10:47:11.899Z,101098.02
2018-06-05T10:49:41.302Z,101101.54
2018-06-05T10:52:10.223Z,101096.62
2018-06-05T10:54:39.141Z,101098.78
2018-06-05T10:57:08.058Z,101098.55
2018-06-05T10:59:36.967Z,101093.98
2018-06-05T11:02:06.648Z,101088.81
2018-06-05T11:04:35.628Z,101092.37
2018-06-05T11:07:04.547Z,101089.08
2018-06-05T11:09:33.447Z,101094.02
2018-06-05T11:12:02.390Z,101095.09
2018-06-05T11:14:31.298Z,101091.55
2018-06-05T11:17:00.230Z,101089.06
2018-06-05T11:19:29.180Z,101089.93
2018-06-05T11:21:58.110Z,101085.84
2018-06-05T11:24:27.023Z,101083.10
2018-06-05T11:26:55.929Z,101080.92
2018-06-05T11:29:24.901Z,101082.56
2018-06-05T11:31:53.811Z,101087.23
2018-06-05T11:34:22.748Z,101077.13
2018-06-05T11:36:51.716Z,101083.14
2018-06-05T11:39:20.752Z,101078.20
2018-06-05T11:41:49.702Z,101072.76
2018-06-05T11:44:18.674Z,101076.06
2018-06-05T11:46:51.465Z,101068.95
2018-06-05T11:49:20.739Z,101072.81
2018-06-05T11:51:49.682Z,101064.86
2018-06-05T11:54:18.662Z,101068.95
2018-06-05T11:56:47.567Z,101062.69
2018-06-05T11:59:16.521Z,101063.25
2018-06-05T12:01:45.461Z,101063.25
2018-06-05T12:04:14.354Z,101056.42
2018-06-05T12:06:43.269Z,101047.97
2018-06-05T12:09:12.691Z,101048.77
2018-06-05T12:11:41.611Z,101047.67
2018-06-05T12:14:10.562Z,101049.84
2018-06-05T12:16:39.461Z,101043.30
2018-06-05T12:19:08.730Z,101041.11
2018-06-05T12:21:38.015Z,101039.76
2018-06-05T12:24:06.975Z,101034.30
2018-06-05T12:26:35.929Z,101032.09
2018-06-05T12:29:05.018Z,101031.27
2018-06-05T12:31:33.954Z,101029.34
2018-06-05T12:34:02.901Z,101019.53
2018-06-05T12:36:31.830Z,101033.97
2018-06-05T12:39:00.785Z,101025.77
2018-06-05T12:41:30.026Z,101027.44
2018-06-05T12:43:59.291Z,101022.47
2018-06-05T12:46:28.515Z,101015.64
2018-06-05T12:48:57.489Z,101012.05
2018-06-05T12:51:26.391Z,101015.91
2018-06-05T12:53:55.336Z,101021.10
2018-06-05T12:56:24.261Z,101013.73
2018-06-05T12:58:53.209Z,101018.66
2018-06-05T13:01:22.318Z,101014.27
2018-06-05T13:03:51.287Z,101012.23
2018-06-05T13:06:20.202Z,101010.55
2018-06-05T13:08:49.132Z,101020.11
2018-06-05T13:11:18.056Z,101023.52
2018-06-05T13:13:47.004Z,101010.35
2018-06-05T13:16:15.919Z,101014.98
2018-06-05T13:18:44.861Z,101015.25
2018-06-05T13:21:16.295Z,101014.73
2018-06-05T13:23:45.283Z,101014.12
2018-06-05T13:26:14.215Z,101007.42
2018-06-05T13:28:43.205Z,101005.41
2018-06-05T13:31:12.146Z,100998.55
2018-06-05T13:33:44.509Z,100998.73
2018-06-05T13:36:13.434Z,100997.89
2018-06-05T13:38:42.375Z,101002.33
2018-06-05T13:41:11.522Z,100992.18
2018-06-05T13:43:40.455Z,100989.70
2018-06-05T13:46:10.135Z,100991.95
2018-06-05T13:48:39.383Z,100992.98
2018-06-05T13:51:08.363Z,100992.79
2018-06-05T13:53:37.311Z,100993.55
2018-06-05T13:56:06.216Z,100986.97
2018-06-05T13:58:35.473Z,100988.51
2018-06-05T14:01:04.416Z,100984.17
2018-06-05T14:03:33.331Z,100975.82
2018-06-05T14:06:02.273Z,100979.37
2018-06-05T14:08:31.243Z,100977.27
2018-06-05T14:11:00.134Z,100969.49
2018-06-05T14:13:29.070Z,100972.84
2018-06-05T14:15:57.989Z,100963.27
2018-06-05T14:18:26.916Z,100960.80
2018-06-05T14:20:55.885Z,100960.52
2018-06-05T14:23:24.801Z,100955.02
2018-06-05T14:25:53.707Z,100960.45
2018-06-05T14:28:22.643Z,100959.88
2018-06-05T14:30:51.590Z,100957.22
2018-06-05T14:33:20.489Z,100951.06
2018-06-05T14:35:49.444Z,100944.09
2018-06-05T14:38:18.399Z,100944.50
2018-06-05T14:40:47.383Z,100942.28
2018-06-05T14:43:17.062Z,100945.09
2018-06-05T14:45:45.994Z,100942.30
2018-06-05T14:48:15.228Z,100935.66
2018-06-05T14:50:44.208Z,100938.87
2018-06-05T14:53:13.141Z,100938.20
2018-06-05T14:55:42.077Z,100928.69
2018-06-05T14:58:11.233Z,100930.75
2018-06-05T15:00:40.184Z,100928.28
2018-06-05T15:03:09.124Z,100935.16
2018-06-05T15:05:38.428Z,100934.23
2018-06-05T15:08:07.350Z,100934.80
2018-06-05T15:10:36.576Z,100929.92
2018-06-05T15:13:06.330Z,100925.63
2018-06-05T15:15:35.200Z,100925.90
2018-06-05T15:18:04.127Z,100920.45
2018-06-05T15:20:33.030Z,100920.69
2018-06-05T15:23:02.772Z,100912.11
2018-06-05T15:25:31.771Z,100912.34
2018-06-05T15:28:04.575Z,100908.66
2018-06-05T15:30:33.946Z,100909.66
2018-06-05T15:33:09.593Z,100911.13
2018-06-05T15:35:38.683Z,100908.20
2018-06-05T15:38:07.643Z,100905.14
2018-06-05T15:40:36.631Z,100905.02
2018-06-05T15:43:05.628Z,100899.47
2018-06-05T15:45:34.576Z,100902.48
2018-06-05T15:48:03.601Z,100902.67
2018-06-05T15:50:32.589Z,100894.55
2018-06-05T15:53:01.442Z,100902.64
2018-06-05T15:55:30.368Z,100896.32
2018-06-05T15:57:59.343Z,100892.84
2018-06-05T16:00:28.242Z,100891.37
2018-06-05T16:02:57.295Z,100886.06
2018-06-05T16:05:26.194Z,100886.50
2018-06-05T16:07:55.134Z,100888.67
2018-06-05T16:10:24.085Z,100883.19
2018-06-05T16:12:53.001Z,100883.59
2018-06-05T16:15:21.912Z,100890.78
2018-06-05T16:17:50.852Z,100889.27
2018-06-05T16:20:19.758Z,100886.00
2018-06-05T16:22:48.657Z,100886.03
2018-06-05T16:25:17.605Z,100875.87
2018-06-05T16:27:46.553Z,100876.47
2018-06-05T16:30:15.538Z,100872.89
2018-06-05T16:32:44.482Z,100870.45
2018-06-05T16:35:13.398Z,100869.58
2018-06-05T16:37:42.305Z,100881.18
2018-06-05T16:40:14.869Z,100867.48
2018-06-05T16:42:43.811Z,100868.78
2018-06-05T16:45:12.904Z,100867.05
2018-06-05T16:47:42.159Z,100871.92
2018-06-05T16:50:11.088Z,100870.59
2018-06-05T16:52:40.311Z,100877.41
2018-06-05T16:55:09.261Z,100864.54
2018-06-05T16:57:38.191Z,100865.08
2018-06-05T17:00:07.149Z,100856.98
2018-06-05T17:02:36.172Z,100862.13
2018-06-05T17:05:05.090Z,100856.59
2018-06-05T17:07:34.012Z,100859.59
2018-06-05T17:10:02.922Z,100856.85
2018-06-05T17:12:31.869Z,100853.34
2018-06-05T17:15:00.788Z,100854.17
2018-06-05T17:17:32.825Z,100858.92
2018-06-05T17:20:02.671Z,100854.55
2018-06-05T17:22:31.610Z,100854.81
2018-06-05T17:25:00.525Z,100856.41
2018-06-05T17:27:29.557Z,100852.94
2018-06-05T17:29:58.390Z,100854.88
2018-06-05T17:32:27.353Z,100855.74
2018-06-05T17:34:56.313Z,100853.80
2018-06-05T17:37:25.230Z,100856.19
2018-06-05T17:39:54.135Z,100858.37
2018-06-05T17:42:23.059Z,100861.14
2018-06-05T17:44:52.025Z,100861.22
2018-06-05T17:47:20.947Z,100853.89
2018-06-05T17:49:49.870Z,100857.68
2018-06-05T17:52:21.890Z,100860.71
2018-06-05T17:54:50.827Z,100862.35
2018-06-05T17:57:19.983Z,100863.85
2018-06-05T17:59:48.992Z,100863.18
2018-06-05T18:02:17.961Z,100860.98
2018-06-05T18:04:46.886Z,100867.27
2018-06-05T18:07:15.802Z,100870.27
2018-06-05T18:09:44.783Z,100871.05
2018-06-05T18:12:13.747Z,100865.97
2018-06-05T18:14:42.634Z,100870.05
2018-06-05T18:17:11.566Z,100870.30
2018-06-05T18:19:40.538Z,100880.63
2018-06-05T18:22:09.425Z,100875.52
2018-06-05T18:24:38.371Z,100878.81
2018-06-05T18:27:07.270Z,100884.05
2018-06-05T18:29:36.208Z,100882.13
2018-06-05T18:32:05.181Z,100881.12
2018-06-05T18:34:34.080Z,100892.94
2018-06-05T18:37:03.118Z,100895.94
2018-06-05T18:39:32.096Z,100892.42
2018-06-05T18:42:01.103Z,100897.94
2018-06-05T18:44:30.106Z,100893.64
2018-06-05T18:46:59.136Z,100891.67
2018-06-05T18:49:28.071Z,100901.84
2018-06-05T18:51:56.990Z,100904.38
2018-06-05T18:54:25.935Z,100904.74
2018-06-05T18:56:54.898Z,100894.61
2018-06-05T18:59:23.811Z,100907.47
2018-06-05T19:01:52.719Z,100907.47
2018-06-05T19:04:21.665Z,100908.63
2018-06-05T19:06:50.578Z,100908.92
2018-06-05T19:09:22.597Z,100908.94
2018-06-05T19:11:51.509Z,100912.25
2018-06-05T19:14:20.452Z,100905.70
2018-06-05T19:16:49.387Z,100910.03
2018-06-05T19:19:18.327Z,100909.79
2018-06-05T19:21:47.249Z,100912.34
2018-06-05T19:24:16.221Z,100913.37
2018-06-05T19:26:45.124Z,100918.81
2018-06-05T19:29:14.202Z,100923.22
2018-06-05T19:31:43.083Z,100921.84
2018-06-05T19:34:12.016Z,100920.22
2018-06-05T19:36:40.920Z,100920.55
2018-06-05T19:39:09.890Z,100930.13
2018-06-05T19:41:38.954Z,100934.49
2018-06-05T19:44:08.024Z,100944.34
2018-06-05T19:46:37.094Z,100945.70
2018-06-05T19:49:05.963Z,100941.91
2018-06-05T19:51:34.971Z,100944.38
2018-06-05T19:54:03.992Z,100951.45
2018-06-05T19:56:33.270Z,100947.35
2018-06-05T19:59:02.201Z,100947.14
2018-06-05T20:01:31.116Z,100949.05
2018-06-05T20:04:00.015Z,100949.88
2018-06-05T20:06:28.950Z,100955.87
2018-06-05T20:08:57.875Z,100955.09
2018-06-05T20:11:26.903Z,100959.22
2018-06-05T20:13:55.807Z,100964.67
2018-06-05T20:16:24.907Z,100959.50
2018-06-05T20:18:53.839Z,100969.56
2018-06-05T20:21:22.878Z,100960.84
2018-06-05T20:23:52.051Z,100963.61
2018-06-05T20:26:20.974Z,100965.23
2018-06-05T20:28:50.300Z,100967.97
2018-06-05T20:31:19.257Z,100963.88
2018-06-05T20:33:48.502Z,100966.61
2018-06-05T20:36:17.588Z,100963.09
2018-06-05T20:38:46.527Z,100976.45
2018-06-05T20:41:15.487Z,100974.00
2018-06-05T20:43:44.418Z,100971.80
2018-06-05T20:46:13.470Z,100967.18
2018-06-05T20:48:42.615Z,100967.18
2018-06-05T20:51:11.847Z,100971.80
2018-06-05T20:53:40.813Z,100974.76
2018-06-05T20:56:09.895Z,100980.20
2018-06-05T20:58:43.152Z,100982.13
2018-06-05T21:01:12.612Z,100978.84
2018-06-05T21:03:42.034Z,100975.31
2018-06-05T21:06:12.116Z,100975.84
2018-06-05T21:08:42.174Z,100977.75
2018-06-05T21:11:11.156Z,100982.92
2018-06-05T21:13:40.188Z,100985.63
2018-06-05T21:16:09.119Z,100986.19
2018-06-05T21:18:38.101Z,100977.44
2018-06-05T21:21:07.121Z,100973.89
2018-06-05T21:23:36.107Z,100978.23
2018-06-05T21:26:05.081Z,100986.67
2018-06-05T21:28:34.164Z,100983.14
2018-06-05T21:31:03.112Z,100983.14
2018-06-05T21:33:32.063Z,100982.05
2018-06-05T21:36:01.213Z,100982.58
2018-06-05T21:38:30.209Z,100988.59
2018-06-05T21:40:59.210Z,100986.13
2018-06-05T21:43:28.140Z,100986.91
2018-06-05T21:45:57.042Z,100990.73
2018-06-05T21:48:25.972Z,100986.13
2018-06-05T21:50:54.933Z,100984.76
2018-06-05T21:53:23.849Z,100990.42
2018-06-05T21:55:53.021Z,100991.78
2018-06-05T21:58:21.939Z,100988.23
2018-06-05T22:00:50.855Z,100986.07
2018-06-05T22:03:19.978Z,100981.39
2018-06-05T22:05:48.918Z,100978.38
2018-06-05T22:08:18.010Z,100985.75
2018-06-05T22:10:46.912Z,100981.95
2018-06-05T22:13:16.047Z,100984.41
2018-06-05T22:15:45.027Z,100983.34
2018-06-05T22:18:13.983Z,100974.61
2018-06-05T22:20:43.707Z,100974.86
2018-06-05T22:23:12.636Z,100974.86
2018-06-05T22:25:41.569Z,100978.11
2018-06-05T22:28:10.808Z,100983.81
2018-06-05T22:30:39.719Z,100974.75
2018-06-05T22:33:08.657Z,100975.52
2018-06-05T22:35:37.569Z,100982.69
2018-06-05T22:38:06.582Z,100979.05
2018-06-05T22:40:35.624Z,100983.69
2018-06-05T22:43:04.569Z,100984.50
2018-06-05T22:45:33.539Z,100976.58
2018-06-05T22:48:02.484Z,100975.45
2018-06-05T22:50:31.421Z,100970.55
2018-06-05T22:53:00.356Z,100969.19
2018-06-05T22:55:29.292Z,100979.50
2018-06-05T22:57:58.225Z,100979.77
2018-06-05T23:00:31.760Z,100977.88
2018-06-05T23:03:00.703Z,100973.03
2018-06-05T23:05:29.615Z,100971.95
2018-06-05T23:07:58.706Z,100969.47
2018-06-05T23:10:27.636Z,100973.00
2018-06-05T23:12:56.589Z,100967.81
2018-06-05T23:15:25.511Z,100969.69
2018-06-05T23:17:54.418Z,100971.83
2018-06-05T23:20:23.357Z,100970.42
2018-06-05T23:22:52.266Z,100968.73
2018-06-05T23:25:21.187Z,100966.25
2018-06-05T23:27:50.118Z,100967.06
2018-06-05T23:30:19.027Z,100968.17
2018-06-05T23:32:47.950Z,100973.48
2018-06-05T23:35:16.897Z,100976.20
2018-06-05T23:37:45.819Z,100970.82
2018-06-05T23:40:14.764Z,100967.62
2018-06-05T23:42:43.686Z,100972.82
2018-06-05T23:45:12.603Z,100970.92
2018-06-05T23:47:41.553Z,100974.23
2018-06-05T23:50:10.464Z,100972.02
2018-06-05T23:52:39.371Z,100972.87
2018-06-05T23:55:08.275Z,100968.23
2018-06-05T23:57:37.183Z,100972.05
